Time;durP1;ratioP1;P1;durP2;ratioP2;P2;SDS_P1;SDS_P2;PMS_P1;PMS_P2;Temp;Humidity;BMP_temperature;BMP_pressure;BME280_temperature;BME280_humidity;BME280_pressure;Samples;Min_cycle;Max_cycle;Signal;HPM_P1;HPM_P2
2024/02/16 00:00:44;;;;;;;1.80;0.73;;;;;;;;;;5030617;28;20072;-68
2024/02/16 00:03:09;;;;;;;4.65;1.08;;;;;;;;;;5030476;28;20025;-68
2024/02/16 00:05:36;;;;;;;3.00;1.25;;;;;;;;;;5030323;28;20060;-68
2024/02/16 00:08:02;;;;;;;1.13;0.70;;;;;;;;;;5026499;28;20048;-68
2024/02/16 00:10:28;;;;;;;6.10;0.80;;;;;;;;;;5027092;28;20037;-68
2024/02/16 00:12:53;;;;;;;4.20;1.33;;;;;;;;;;5030833;28;20083;-68
2024/02/16 00:15:18;;;;;;;4.18;0.68;;;;;;;;;;5030846;28;20044;-69
2024/02/16 00:17:44;;;;;;;3.90;1.33;;;;;;;;;;5030514;28;20041;-68
2024/02/16 00:20:12;;;;;;;3.72;1.17;;;;;;;;;;5030884;28;20051;-68
2024/02/16 00:22:37;;;;;;;5.22;1.50;;;;;;;;;;5031035;28;20048;-68
2024/02/16 00:25:03;;;;;;;4.55;1.33;;;;;;;;;;5030391;28;20404;-68
2024/02/16 00:27:29;;;;;;;4.88;1.48;;;;;;;;;;5030566;28;20071;-68
2024/02/16 00:29:54;;;;;;;6.47;1.10;;;;;;;;;;5030528;28;20468;-68
2024/02/16 00:32:19;;;;;;;5.50;1.20;;;;;;;;;;5030732;28;20492;-68
2024/02/16 00:34:45;;;;;;;6.47;1.25;;;;;;;;;;5027385;28;20032;-68
2024/02/16 00:37:13;;;;;;;4.05;1.27;;;;;;;;;;5030762;28;20040;-68
2024/02/16 00:39:42;;;;;;;6.93;1.20;;;;;;;;;;5030316;28;20033;-67
2024/02/16 00:42:08;;;;;;;5.72;1.42;;;;;;;;;;5028466;28;20033;-69
2024/02/16 00:44:33;;;;;;;4.43;1.05;;;;;;;;;;5019206;28;20045;-68
2024/02/16 00:46:58;;;;;;;5.43;1.30;;;;;;;;;;5030358;28;20117;-68
2024/02/16 00:49:24;;;;;;;4.65;1.25;;;;;;;;;;5030182;28;20040;-69
2024/02/16 00:51:50;;;;;;;8.10;1.80;;;;;;;;;;5029885;28;20045;-68
2024/02/16 00:54:16;;;;;;;4.88;1.70;;;;;;;;;;5029176;28;20431;-68
2024/02/16 00:56:41;;;;;;;4.28;1.30;;;;;;;;;;5029845;28;20116;-68
2024/02/16 00:59:08;;;;;;;4.43;1.60;;;;;;;;;;5030004;28;20034;-68
2024/02/16 01:01:35;;;;;;;8.45;1.65;;;;;;;;;;5028640;28;20424;-68
2024/02/16 01:04:00;;;;;;;9.10;1.73;;;;;;;;;;5029493;28;20469;-68
2024/02/16 01:06:26;;;;;;;12.35;1.48;;;;;;;;;;5030085;28;20120;-67
2024/02/16 01:08:51;;;;;;;3.85;1.33;;;;;;;;;;5030332;28;20068;-67
2024/02/16 01:11:16;;;;;;;4.50;1.30;;;;;;;;;;5030097;28;20144;-67
2024/02/16 01:13:43;;;;;;;9.77;2.38;;;;;;;;;;5030062;28;20075;-68
2024/02/16 01:16:09;;;;;;;4.40;1.30;;;;;;;;;;5029854;28;20490;-69
2024/02/16 01:18:36;;;;;;;7.13;1.50;;;;;;;;;;5030125;28;20052;-69
2024/02/16 01:21:03;;;;;;;11.50;1.50;;;;;;;;;;5027844;28;20049;-67
2024/02/16 01:23:28;;;;;;;7.28;1.10;;;;;;;;;;5029739;28;20481;-67
2024/02/16 01:25:53;;;;;;;2.95;1.05;;;;;;;;;;5029864;28;20117;-68
2024/02/16 01:28:19;;;;;;;5.80;1.20;;;;;;;;;;5029278;28;20124;-68
2024/02/16 01:30:44;;;;;;;4.13;1.15;;;;;;;;;;5029540;28;20060;-69
2024/02/16 01:33:10;;;;;;;5.00;1.10;;;;;;;;;;5029739;28;20030;-67
2024/02/16 01:35:35;;;;;;;4.82;1.23;;;;;;;;;;5029425;28;20041;-67
2024/02/16 01:38:04;;;;;;;5.90;1.88;;;;;;;;;;5012102;28;20087;-67
2024/02/16 01:40:29;;;;;;;8.10;2.00;;;;;;;;;;5030026;28;20121;-68
2024/02/16 01:42:54;;;;;;;8.15;1.42;;;;;;;;;;5029511;28;20131;-67
2024/02/16 01:45:20;;;;;;;6.07;1.73;;;;;;;;;;5026692;28;20029;-67
2024/02/16 01:47:47;;;;;;;6.63;1.48;;;;;;;;;;5029886;28;20029;-68
2024/02/16 01:50:15;;;;;;;28.73;2.53;;;;;;;;;;5011942;28;20592;-68
2024/02/16 01:52:40;;;;;;;4.15;0.95;;;;;;;;;;5027628;28;20080;-68
2024/02/16 01:55:10;;;;;;;6.53;1.25;;;;;;;;;;5029730;28;20465;-68
2024/02/16 01:57:36;;;;;;;5.35;1.00;;;;;;;;;;5029765;28;20088;-67
2024/02/16 02:00:01;;;;;;;4.97;1.08;;;;;;;;;;5028099;28;20396;-68
2024/02/16 02:02:27;;;;;;;6.32;1.08;;;;;;;;;;5029620;28;20029;-67
2024/02/16 02:04:53;;;;;;;1.77;0.90;;;;;;;;;;5032195;28;20060;-68
2024/02/16 02:07:18;;;;;;;9.32;0.93;;;;;;;;;;5031775;28;20457;-68
2024/02/16 02:09:43;;;;;;;3.10;0.90;;;;;;;;;;5033229;28;20484;-67
2024/02/16 02:12:09;;;;;;;3.45;0.82;;;;;;;;;;5033139;28;20496;-68
2024/02/16 02:14:36;;;;;;;4.25;1.13;;;;;;;;;;5028441;28;20529;-67
2024/02/16 02:17:02;;;;;;;4.88;0.90;;;;;;;;;;5029278;28;20046;-68
2024/02/16 02:19:27;;;;;;;4.57;1.00;;;;;;;;;;5033258;28;20037;-68
2024/02/16 02:21:52;;;;;;;4.80;0.77;;;;;;;;;;5032520;28;20022;-68
2024/02/16 02:24:18;;;;;;;9.75;0.80;;;;;;;;;;5031906;28;20048;-67
2024/02/16 02:26:43;;;;;;;93.22;3.30;;;;;;;;;;5033027;28;20491;-68
2024/02/16 02:29:08;;;;;;;54.25;2.67;;;;;;;;;;5032612;28;20033;-68
2024/02/16 02:31:34;;;;;;;39.00;1.70;;;;;;;;;;5032894;28;20353;-68
2024/02/16 02:34:00;;;;;;;39.85;1.52;;;;;;;;;;5031740;28;20396;-67
2024/02/16 02:36:25;;;;;;;5.13;0.80;;;;;;;;;;5032664;28;20373;-68
2024/02/16 02:38:50;;;;;;;5.72;1.05;;;;;;;;;;5032607;28;20040;-67
2024/02/16 02:41:17;;;;;;;4.03;1.10;;;;;;;;;;5032383;28;20034;-68
2024/02/16 02:43:42;;;;;;;3.85;1.02;;;;;;;;;;5032749;28;20025;-68
2024/02/16 02:46:08;;;;;;;2.65;0.77;;;;;;;;;;5032221;28;20041;-67
2024/02/16 02:48:33;;;;;;;6.90;0.90;;;;;;;;;;5032674;28;20187;-68
2024/02/16 02:50:59;;;;;;;2.13;1.05;;;;;;;;;;5029862;28;20396;-67
2024/02/16 02:53:28;;;;;;;7.35;1.00;;;;;;;;;;5032326;28;20029;-68
2024/02/16 02:55:53;;;;;;;6.45;1.17;;;;;;;;;;5014461;28;20108;-68
2024/02/16 02:58:19;;;;;;;4.88;0.90;;;;;;;;;;5030707;28;20116;-67
2024/02/16 03:00:44;;;;;;;4.60;1.42;;;;;;;;;;5013718;28;20623;-68
2024/02/16 03:03:10;;;;;;;5.10;1.17;;;;;;;;;;5031486;28;20051;-67
2024/02/16 03:05:35;;;;;;;5.32;0.95;;;;;;;;;;5032041;28;20064;-67
2024/02/16 03:08:01;;;;;;;4.30;1.10;;;;;;;;;;5030436;28;20033;-68
2024/02/16 03:10:31;;;;;;;5.55;0.93;;;;;;;;;;5030027;28;20639;-68
2024/02/16 03:12:56;;;;;;;10.13;0.90;;;;;;;;;;5030979;28;20034;-67
2024/02/16 03:15:21;;;;;;;8.90;1.08;;;;;;;;;;5031784;28;20402;-68
2024/02/16 03:17:47;;;;;;;8.02;1.35;;;;;;;;;;5031248;28;20037;-68
2024/02/16 03:20:12;;;;;;;10.25;1.23;;;;;;;;;;5031020;28;20039;-68
2024/02/16 03:22:37;;;;;;;9.93;1.00;;;;;;;;;;5030468;28;20052;-68
2024/02/16 03:25:04;;;;;;;6.60;0.93;;;;;;;;;;5031304;28;20049;-68
2024/02/16 03:27:30;;;;;;;8.65;1.10;;;;;;;;;;5031345;28;20112;-67
2024/02/16 03:29:55;;;;;;;14.70;1.38;;;;;;;;;;5031461;28;20536;-67
2024/02/16 03:32:21;;;;;;;5.38;1.08;;;;;;;;;;5030974;28;20229;-69
2024/02/16 03:34:46;;;;;;;9.20;1.05;;;;;;;;;;5031436;28;20112;-67
2024/02/16 03:37:12;;;;;;;4.90;0.90;;;;;;;;;;5031178;28;20034;-68
2024/02/16 03:39:37;;;;;;;7.70;1.10;;;;;;;;;;5031239;28;20477;-68
2024/02/16 03:42:03;;;;;;;7.97;1.23;;;;;;;;;;5031105;28;20421;-68
2024/02/16 03:44:28;;;;;;;4.15;1.75;;;;;;;;;;5031364;28;20041;-68
2024/02/16 03:46:53;;;;;;;10.07;1.10;;;;;;;;;;5030850;28;20041;-68
2024/02/16 03:49:19;;;;;;;7.43;1.20;;;;;;;;;;5031739;28;20041;-68
2024/02/16 03:51:44;;;;;;;5.15;1.00;;;;;;;;;;5031376;28;20041;-68
2024/02/16 03:54:10;;;;;;;10.10;1.20;;;;;;;;;;5031204;28;20087;-67
2024/02/16 03:56:36;;;;;;;6.15;0.93;;;;;;;;;;5028188;28;20037;-67
2024/02/16 03:59:01;;;;;;;12.68;1.30;;;;;;;;;;5031427;28;20493;-67
2024/02/16 04:01:26;;;;;;;6.72;1.40;;;;;;;;;;5030405;28;20037;-67
2024/02/16 04:03:52;;;;;;;10.35;1.40;;;;;;;;;;5031242;28;20037;-67
2024/02/16 04:06:19;;;;;;;11.68;1.48;;;;;;;;;;5009216;28;20050;-67
2024/02/16 04:08:44;;;;;;;10.25;1.65;;;;;;;;;;5030528;28;20037;-68
2024/02/16 04:11:12;;;;;;;10.23;1.60;;;;;;;;;;5024035;28;20041;-67
2024/02/16 04:13:37;;;;;;;6.50;1.42;;;;;;;;;;5031027;28;20038;-67
2024/02/16 04:16:03;;;;;;;4.88;1.17;;;;;;;;;;5030880;28;20033;-68
2024/02/16 04:18:28;;;;;;;34.22;2.55;;;;;;;;;;5029948;28;20041;-70
2024/02/16 04:20:53;;;;;;;14.98;1.45;;;;;;;;;;5030832;28;20034;-67
2024/02/16 04:23:19;;;;;;;11.02;1.30;;;;;;;;;;5030639;28;20072;-67
2024/02/16 04:25:44;;;;;;;30.83;1.70;;;;;;;;;;5021790;28;20033;-69
2024/02/16 04:28:09;;;;;;;4.50;1.33;;;;;;;;;;5029827;28;20033;-68
2024/02/16 04:30:35;;;;;;;8.52;1.58;;;;;;;;;;5030152;28;20048;-68
2024/02/16 04:33:01;;;;;;;8.18;1.05;;;;;;;;;;5031410;28;20052;-68
2024/02/16 04:35:26;;;;;;;6.97;1.38;;;;;;;;;;5030700;28;20037;-67
2024/02/16 04:37:52;;;;;;;11.70;1.30;;;;;;;;;;5031950;28;20106;-66
2024/02/16 04:40:17;;;;;;;17.95;1.75;;;;;;;;;;5034772;28;20099;-67
2024/02/16 04:42:42;;;;;;;88.85;3.38;;;;;;;;;;5030051;28;20037;-66
2024/02/16 04:45:11;;;;;;;43.08;1.90;;;;;;;;;;5029949;28;20033;-68
2024/02/16 04:47:36;;;;;;;98.00;3.08;;;;;;;;;;5026002;28;20119;-68
2024/02/16 04:50:03;;;;;;;54.72;2.72;;;;;;;;;;5033550;28;20065;-68
2024/02/16 04:52:28;;;;;;;33.17;2.00;;;;;;;;;;5015750;28;20404;-68
2024/02/16 04:54:53;;;;;;;31.02;1.98;;;;;;;;;;5029949;28;20038;-69
2024/02/16 04:57:19;;;;;;;33.10;2.28;;;;;;;;;;5029326;28;20032;-68
2024/02/16 04:59:44;;;;;;;10.65;1.80;;;;;;;;;;5021797;28;20517;-69
2024/02/16 05:02:10;;;;;;;10.52;1.65;;;;;;;;;;5029433;28;20542;-67
2024/02/16 05:04:35;;;;;;;15.60;2.30;;;;;;;;;;5028626;28;20033;-66
2024/02/16 05:07:01;;;;;;;12.60;2.33;;;;;;;;;;5031637;28;20046;-67
2024/02/16 05:09:26;;;;;;;15.43;2.05;;;;;;;;;;5029969;28;20040;-67
2024/02/16 05:11:52;;;;;;;14.02;2.42;;;;;;;;;;5029705;28;20029;-66
2024/02/16 05:14:17;;;;;;;11.35;2.15;;;;;;;;;;5029756;28;20037;-66
2024/02/16 05:16:45;;;;;;;9.38;2.08;;;;;;;;;;5029993;28;20110;-67
2024/02/16 05:19:11;;;;;;;6.95;1.88;;;;;;;;;;5029945;28;20095;-69
2024/02/16 05:21:36;;;;;;;121.53;5.40;;;;;;;;;;5028601;28;20445;-68
2024/02/16 05:24:02;;;;;;;66.50;3.17;;;;;;;;;;5030010;28;20538;-69
2024/02/16 05:26:27;;;;;;;29.08;2.05;;;;;;;;;;5029681;28;20104;-68
2024/02/16 05:28:53;;;;;;;17.95;2.15;;;;;;;;;;5029447;28;20102;-68
2024/02/16 05:31:18;;;;;;;7.10;1.45;;;;;;;;;;5028769;28;20021;-68
2024/02/16 05:33:46;;;;;;;13.50;2.22;;;;;;;;;;5028318;28;20037;-68
2024/02/16 05:36:11;;;;;;;99.80;3.83;;;;;;;;;;5011135;28;20072;-68
2024/02/16 05:38:40;;;;;;;32.15;2.55;;;;;;;;;;5032382;28;20604;-69
2024/02/16 05:41:10;;;;;;;68.10;3.92;;;;;;;;;;5032510;28;20500;-70
2024/02/16 05:43:36;;;;;;;101.13;3.88;;;;;;;;;;5033130;28;20234;-68
2024/02/16 05:46:01;;;;;;;43.83;2.63;;;;;;;;;;5033104;28;20037;-68
2024/02/16 05:48:27;;;;;;;56.72;2.72;;;;;;;;;;5033444;28;20041;-68
2024/02/16 05:50:53;;;;;;;48.25;2.50;;;;;;;;;;5033326;28;20042;-68
2024/02/16 05:53:21;;;;;;;35.10;2.92;;;;;;;;;;5030465;28;20553;-68
2024/02/16 05:55:47;;;;;;;37.58;2.80;;;;;;;;;;5023567;28;20029;-69
2024/02/16 05:58:12;;;;;;;26.75;2.60;;;;;;;;;;5032898;28;20072;-68
2024/02/16 06:00:38;;;;;;;16.50;2.50;;;;;;;;;;5032455;28;20052;-68
2024/02/16 06:03:03;;;;;;;7.07;2.05;;;;;;;;;;5033206;28;20033;-70
2024/02/16 06:05:28;;;;;;;6.25;1.92;;;;;;;;;;5032629;28;20050;-69
2024/02/16 06:07:56;;;;;;;86.85;5.13;;;;;;;;;;5032344;28;20124;-68
2024/02/16 06:10:22;;;;;;;131.15;5.28;;;;;;;;;;5033261;28;20037;-68
2024/02/16 06:12:47;;;;;;;112.05;5.35;;;;;;;;;;5015558;28;20062;-68
2024/02/16 06:15:14;;;;;;;113.72;4.10;;;;;;;;;;5033305;28;20049;-68
2024/02/16 06:17:40;;;;;;;96.15;4.40;;;;;;;;;;5032786;28;20370;-68
2024/02/16 06:20:09;;;;;;;64.65;4.00;;;;;;;;;;5033123;28;20112;-68
2024/02/16 06:22:35;;;;;;;34.80;3.33;;;;;;;;;;5032740;28;20033;-68
2024/02/16 06:25:00;;;;;;;41.80;3.97;;;;;;;;;;5031927;28;20112;-69
2024/02/16 06:27:26;;;;;;;22.50;2.50;;;;;;;;;;5032534;28;20121;-69
2024/02/16 06:29:51;;;;;;;19.70;3.03;;;;;;;;;;5027856;28;20029;-69
2024/02/16 06:32:17;;;;;;;50.00;3.60;;;;;;;;;;5027593;28;20037;-69
2024/02/16 06:34:42;;;;;;;114.63;5.55;;;;;;;;;;5031465;28;20491;-67
2024/02/16 06:37:08;;;;;;;198.60;6.05;;;;;;;;;;5031981;28;20452;-69
2024/02/16 06:39:34;;;;;;;69.88;3.38;;;;;;;;;;5032897;28;20476;-68
2024/02/16 06:42:00;;;;;;;52.90;3.00;;;;;;;;;;5031546;28;20370;-68
2024/02/16 06:44:25;;;;;;;35.58;3.03;;;;;;;;;;5032113;28;20037;-68
2024/02/16 06:46:51;;;;;;;16.67;2.08;;;;;;;;;;5032540;28;20124;-67
2024/02/16 06:49:16;;;;;;;21.15;2.95;;;;;;;;;;5030454;28;20045;-69
2024/02/16 06:51:42;;;;;;;11.73;2.33;;;;;;;;;;5032189;28;20033;-68
2024/02/16 06:54:07;;;;;;;33.03;3.15;;;;;;;;;;5032110;28;20127;-68
2024/02/16 06:56:33;;;;;;;16.05;2.72;;;;;;;;;;5032291;28;20572;-68
2024/02/16 06:58:59;;;;;;;11.63;3.03;;;;;;;;;;5031132;28;20503;-67
2024/02/16 07:01:25;;;;;;;7.20;2.58;;;;;;;;;;5014471;28;20033;-69
2024/02/16 07:03:51;;;;;;;10.38;2.63;;;;;;;;;;5031659;28;20052;-68
2024/02/16 07:06:16;;;;;;;12.93;2.67;;;;;;;;;;5030571;28;20042;-68
2024/02/16 07:08:43;;;;;;;9.60;2.85;;;;;;;;;;5031759;28;20041;-69
2024/02/16 07:11:11;;;;;;;15.15;3.47;;;;;;;;;;5031064;28;20037;-68
2024/02/16 07:13:37;;;;;;;20.55;3.65;;;;;;;;;;5031274;28;20076;-68
2024/02/16 07:16:03;;;;;;;20.05;3.63;;;;;;;;;;5029167;28;20116;-68
2024/02/16 07:18:30;;;;;;;45.53;5.18;;;;;;;;;;5031144;28;20044;-68
2024/02/16 07:20:55;;;;;;;78.25;5.30;;;;;;;;;;5041635;28;20025;-67
2024/02/16 07:23:21;;;;;;;21.73;3.80;;;;;;;;;;5031112;28;20457;-69
2024/02/16 07:25:46;;;;;;;17.15;3.05;;;;;;;;;;5031379;28;20041;-68
2024/02/16 07:28:11;;;;;;;22.77;3.80;;;;;;;;;;5031414;28;20065;-70
2024/02/16 07:30:38;;;;;;;13.73;2.78;;;;;;;;;;5031458;28;20053;-70
2024/02/16 07:33:04;;;;;;;20.75;2.92;;;;;;;;;;5030988;28;20596;-68
2024/02/16 07:35:30;;;;;;;17.30;3.85;;;;;;;;;;5013276;28;20120;-68
2024/02/16 07:37:55;;;;;;;17.20;3.15;;;;;;;;;;5031451;28;20453;-67
2024/02/16 07:40:22;;;;;;;16.50;2.95;;;;;;;;;;5030251;28;20074;-69
2024/02/16 07:42:47;;;;;;;20.17;3.05;;;;;;;;;;5031452;28;20084;-67
2024/02/16 07:45:12;;;;;;;21.90;3.40;;;;;;;;;;5031463;28;20053;-68
2024/02/16 07:47:40;;;;;;;25.40;3.33;;;;;;;;;;5031022;28;20543;-68
2024/02/16 07:50:06;;;;;;;28.20;3.50;;;;;;;;;;5026811;28;20025;-67
2024/02/16 07:52:32;;;;;;;16.83;3.10;;;;;;;;;;5030216;28;20519;-68
2024/02/16 07:54:57;;;;;;;17.38;3.25;;;;;;;;;;5030629;28;20037;-67
2024/02/16 07:57:23;;;;;;;15.80;2.42;;;;;;;;;;5030624;28;20036;-70
2024/02/16 07:59:48;;;;;;;33.45;3.00;;;;;;;;;;5030946;28;20053;-68
2024/02/16 08:02:15;;;;;;;16.83;3.03;;;;;;;;;;5029421;28;20045;-69
2024/02/16 08:04:41;;;;;;;26.48;3.15;;;;;;;;;;5031093;28;20037;-69
2024/02/16 08:07:07;;;;;;;33.13;3.58;;;;;;;;;;5031104;28;20048;-67
2024/02/16 08:09:33;;;;;;;26.52;3.65;;;;;;;;;;5030573;28;20037;-68
2024/02/16 08:11:59;;;;;;;29.20;3.95;;;;;;;;;;5012416;28;20030;-69
2024/02/16 08:14:25;;;;;;;19.58;6.30;;;;;;;;;;5031006;28;20132;-68
2024/02/16 08:16:50;;;;;;;24.25;4.47;;;;;;;;;;5029792;28;20527;-68
2024/02/16 08:19:16;;;;;;;11.90;5.32;;;;;;;;;;5029785;28;20026;-69
2024/02/16 08:21:41;;;;;;;45.60;4.00;;;;;;;;;;5030906;28;20385;-69
2024/02/16 08:24:06;;;;;;;16.45;3.85;;;;;;;;;;5030559;28;20899;-69
2024/02/16 08:26:32;;;;;;;11.60;3.05;;;;;;;;;;5029705;28;20065;-70
2024/02/16 08:28:58;;;;;;;22.35;3.45;;;;;;;;;;5032061;28;20048;-68
2024/02/16 08:31:23;;;;;;;18.42;3.10;;;;;;;;;;5029746;28;20034;-69
2024/02/16 08:33:48;;;;;;;20.77;2.65;;;;;;;;;;5028845;28;20067;-69
2024/02/16 08:36:14;;;;;;;11.90;2.38;;;;;;;;;;5030396;28;20037;-69
2024/02/16 08:38:40;;;;;;;28.33;2.88;;;;;;;;;;5028965;28;20060;-69
2024/02/16 08:41:05;;;;;;;33.75;2.95;;;;;;;;;;5030188;28;20075;-70
2024/02/16 08:43:30;;;;;;;10.85;2.72;;;;;;;;;;5030438;28;20376;-69
2024/02/16 08:45:56;;;;;;;19.10;3.08;;;;;;;;;;5030410;28;20029;-72
2024/02/16 08:48:22;;;;;;;37.28;3.70;;;;;;;;;;5028812;28;20247;-68
2024/02/16 08:50:48;;;;;;;64.68;4.88;;;;;;;;;;5029076;28;20038;-69
2024/02/16 08:53:14;;;;;;;177.00;10.00;;;;;;;;;;5030141;28;20449;-69
2024/02/16 08:55:39;;;;;;;73.93;4.35;;;;;;;;;;5029954;28;20061;-70
2024/02/16 08:58:07;;;;;;;146.00;8.32;;;;;;;;;;5028928;28;20108;-70
2024/02/16 09:00:32;;;;;;;17.13;2.60;;;;;;;;;;5028089;28;20038;-71
2024/02/16 09:02:58;;;;;;;11.63;2.50;;;;;;;;;;5033254;28;20677;-70
2024/02/16 09:05:24;;;;;;;6.40;2.08;;;;;;;;;;5027419;28;20061;-68
2024/02/16 09:07:49;;;;;;;3.53;1.80;;;;;;;;;;5010479;28;20113;-69
2024/02/16 09:10:14;;;;;;;;;;;;;;;;;;5010387;28;20076;-69
2024/02/16 09:12:40;;;;;;;6.38;2.20;;;;;;;;;;5010603;28;20422;-69
2024/02/16 09:15:06;;;;;;;8.50;1.92;;;;;;;;;;5017003;28;20478;-69
2024/02/16 09:17:31;;;;;;;5.95;1.83;;;;;;;;;;5016984;28;20032;-70
2024/02/16 09:19:57;;;;;;;5.28;1.65;;;;;;;;;;5016558;28;20105;-72
2024/02/16 09:22:22;;;;;;;6.43;1.40;;;;;;;;;;5016706;28;20073;-67
2024/02/16 09:24:48;;;;;;;4.82;1.23;;;;;;;;;;5014381;28;20034;-70
2024/02/16 09:27:13;;;;;;;4.35;1.58;;;;;;;;;;5015234;28;20458;-72
2024/02/16 09:29:39;;;;;;;3.45;1.60;;;;;;;;;;5021973;28;20080;-71
2024/02/16 09:32:05;;;;;;;3.63;0.95;;;;;;;;;;5016098;28;20034;-69
2024/02/16 09:34:31;;;;;;;5.35;1.08;;;;;;;;;;5014873;28;20053;-70
2024/02/16 09:36:56;;;;;;;5.35;1.25;;;;;;;;;;5031383;28;20038;-69
2024/02/16 09:39:22;;;;;;;6.75;1.20;;;;;;;;;;5015754;28;20034;-70
2024/02/16 09:41:51;;;;;;;4.55;0.73;;;;;;;;;;5016231;28;20401;-69
2024/02/16 09:44:17;;;;;;;3.38;1.08;;;;;;;;;;5015011;28;20458;-70
2024/02/16 09:46:42;;;;;;;3.35;1.10;;;;;;;;;;5016617;28;20029;-69
2024/02/16 09:49:08;;;;;;;3.38;0.93;;;;;;;;;;5016614;28;20037;-70
2024/02/16 09:51:37;;;;;;;5.45;1.30;;;;;;;;;;5016522;28;20049;-69
2024/02/16 09:54:02;;;;;;;6.20;1.10;;;;;;;;;;5018368;28;20025;-69
2024/02/16 09:56:28;;;;;;;3.47;1.30;;;;;;;;;;5015811;28;20042;-69
2024/02/16 09:58:54;;;;;;;7.57;1.15;;;;;;;;;;5016000;28;20034;-69
2024/02/16 10:01:21;;;;;;;6.32;1.17;;;;;;;;;;5015507;28;20504;-69
2024/02/16 10:03:47;;;;;;;7.40;1.70;;;;;;;;;;5031058;28;20030;-69
2024/02/16 10:06:13;;;;;;;3.38;1.10;;;;;;;;;;5013757;28;20061;-69
2024/02/16 10:08:51;;;;;;;4.88;1.02;;;;;;;;;;5015011;28;20119;-69
2024/02/16 10:11:20;;;;;;;8.65;1.33;;;;;;;;;;5016274;28;20057;-69
2024/02/16 10:13:56;;;;;;;3.25;1.10;;;;;;;;;;5031228;28;20037;-69
2024/02/16 10:16:21;;;;;;;3.58;0.93;;;;;;;;;;5006036;28;20424;-69
2024/02/16 10:18:46;;;;;;;4.00;1.02;;;;;;;;;;5015907;28;20026;-69
2024/02/16 10:21:11;;;;;;;6.97;1.38;;;;;;;;;;5015674;28;20503;-70
2024/02/16 10:23:37;;;;;;;4.78;1.20;;;;;;;;;;5015749;28;20420;-69
2024/02/16 10:26:02;;;;;;;5.85;1.17;;;;;;;;;;5012429;28;20041;-69
2024/02/16 10:28:30;;;;;;;3.90;1.10;;;;;;;;;;5028373;28;20034;-69
2024/02/16 10:31:02;;;;;;;4.13;1.42;;;;;;;;;;5011666;28;20034;-69
2024/02/16 10:33:29;;;;;;;7.38;1.25;;;;;;;;;;5013183;28;20030;-69
2024/02/16 10:35:56;;;;;;;5.20;1.58;;;;;;;;;;5013106;28;20077;-68
2024/02/16 10:38:22;;;;;;;5.38;1.27;;;;;;;;;;5027986;28;20041;-69
2024/02/16 10:40:48;;;;;;;3.60;1.27;;;;;;;;;;5013068;28;20095;-68
2024/02/16 10:43:15;;;;;;;5.97;1.35;;;;;;;;;;5011657;28;20041;-68
2024/02/16 10:45:40;;;;;;;8.75;1.35;;;;;;;;;;5027556;28;20034;-69
2024/02/16 10:48:07;;;;;;;7.00;1.40;;;;;;;;;;5028302;28;20044;-69
2024/02/16 10:50:34;;;;;;;8.27;1.33;;;;;;;;;;5011571;28;20080;-69
2024/02/16 10:53:05;;;;;;;3.72;1.23;;;;;;;;;;5026495;28;20615;-69
2024/02/16 10:55:30;;;;;;;8.25;1.33;;;;;;;;;;5000391;28;20026;-68
2024/02/16 10:57:56;;;;;;;7.97;1.15;;;;;;;;;;5026561;28;20049;-69
2024/02/16 11:00:22;;;;;;;8.38;1.27;;;;;;;;;;5012309;28;20030;-69
2024/02/16 11:02:56;;;;;;;5.43;1.20;;;;;;;;;;5012618;28;20100;-68
2024/02/16 11:05:42;;;;;;;;;;;;;;;;;;5027853;28;20115;-69
2024/02/16 11:08:12;;;;;;;6.20;1.38;;;;;;;;;;5027192;28;20007;-69
2024/02/16 11:10:38;;;;;;;6.55;1.15;;;;;;;;;;5011191;28;20620;-70
2024/02/16 11:13:11;;;;;;;5.97;1.00;;;;;;;;;;5010703;28;20042;-68
2024/02/16 11:15:37;;;;;;;8.13;1.17;;;;;;;;;;5009223;28;20478;-69
2024/02/16 11:18:03;;;;;;;3.28;0.93;;;;;;;;;;5011562;28;20290;-68
2024/02/16 11:20:29;;;;;;;10.30;1.40;;;;;;;;;;5005310;28;20115;-69
2024/02/16 11:23:06;;;;;;;5.43;1.30;;;;;;;;;;5010637;28;20038;-73
2024/02/16 11:25:32;;;;;;;7.72;1.73;;;;;;;;;;5022599;28;20090;-70
2024/02/16 11:27:58;;;;;;;6.53;1.42;;;;;;;;;;5008399;28;20406;-68
2024/02/16 11:30:24;;;;;;;5.20;0.98;;;;;;;;;;5023109;28;20041;-70
2024/02/16 11:32:51;;;;;;;3.55;0.88;;;;;;;;;;5007909;28;20041;-71
2024/02/16 11:35:16;;;;;;;9.30;1.17;;;;;;;;;;5007324;28;20477;-69
2024/02/16 11:37:42;;;;;;;2.40;0.85;;;;;;;;;;5007825;28;20053;-69
2024/02/16 11:40:11;;;;;;;8.70;1.25;;;;;;;;;;5021726;28;20678;-68
2024/02/16 11:42:37;;;;;;;4.55;0.90;;;;;;;;;;5007879;28;20038;-69
2024/02/16 11:45:03;;;;;;;2.75;0.70;;;;;;;;;;5008307;28;20041;-69
2024/02/16 11:47:28;;;;;;;6.45;1.10;;;;;;;;;;5007801;28;20049;-69
2024/02/16 11:50:10;;;;;;;3.33;0.82;;;;;;;;;;5007007;28;20428;-70
2024/02/16 11:52:37;;;;;;;7.40;1.27;;;;;;;;;;5006860;28;20140;-69
2024/02/16 11:55:03;;;;;;;7.68;1.17;;;;;;;;;;5022861;28;20156;-69
2024/02/16 11:57:29;;;;;;;6.78;1.10;;;;;;;;;;4999113;28;20152;-69
2024/02/16 11:59:54;;;;;;;8.90;1.42;;;;;;;;;;5016857;28;20212;-69
2024/02/16 12:02:20;;;;;;;9.35;1.20;;;;;;;;;;5004989;28;20037;-70
2024/02/16 12:04:46;;;;;;;6.72;1.00;;;;;;;;;;5024002;28;20045;-70
2024/02/16 12:07:13;;;;;;;5.15;1.42;;;;;;;;;;5026720;28;20037;-69
2024/02/16 12:09:38;;;;;;;2.30;1.00;;;;;;;;;;5008146;28;20078;-69
2024/02/16 12:12:05;;;;;;;6.55;1.10;;;;;;;;;;5026042;28;20041;-69
2024/02/16 12:14:31;;;;;;;3.00;0.85;;;;;;;;;;5024684;28;20120;-68
2024/02/16 12:16:58;;;;;;;3.45;0.43;;;;;;;;;;5026119;28;20167;-69
2024/02/16 12:19:23;;;;;;;7.30;1.02;;;;;;;;;;5025107;28;20049;-69
2024/02/16 12:21:53;;;;;;;4.82;0.70;;;;;;;;;;5008291;28;20041;-69
2024/02/16 12:24:19;;;;;;;6.03;0.68;;;;;;;;;;5024237;28;20108;-68
2024/02/16 12:26:44;;;;;;;6.65;0.85;;;;;;;;;;5010891;28;20546;-69
2024/02/16 12:29:12;;;;;;;2.70;0.70;;;;;;;;;;5026037;28;20112;-68
2024/02/16 12:31:40;;;;;;;4.63;0.80;;;;;;;;;;5017217;28;20053;-70
2024/02/16 12:34:07;;;;;;;3.47;0.90;;;;;;;;;;5025931;28;20041;-69
2024/02/16 12:36:35;;;;;;;4.88;0.98;;;;;;;;;;5024230;28;20049;-69
2024/02/16 12:39:03;;;;;;;3.53;0.80;;;;;;;;;;5024534;28;20068;-69
2024/02/16 12:41:29;;;;;;;6.32;1.27;;;;;;;;;;5008977;28;20056;-69
2024/02/16 12:43:54;;;;;;;3.38;1.15;;;;;;;;;;5025527;28;20073;-69
2024/02/16 12:46:20;;;;;;;3.55;0.80;;;;;;;;;;5024750;28;20059;-70
2024/02/16 12:48:45;;;;;;;6.95;0.85;;;;;;;;;;5024924;28;20109;-68
2024/02/16 12:51:11;;;;;;;8.35;1.17;;;;;;;;;;5025318;28;20118;-68
2024/02/16 12:53:40;;;;;;;4.60;0.90;;;;;;;;;;5024048;28;20048;-71
2024/02/16 12:56:08;;;;;;;5.65;1.10;;;;;;;;;;5025376;28;20048;-68
2024/02/16 12:58:33;;;;;;;7.80;1.00;;;;;;;;;;5026100;28;20160;-68
2024/02/16 13:00:59;;;;;;;5.07;1.10;;;;;;;;;;5022476;28;20124;-70
2024/02/16 13:03:24;;;;;;;6.75;1.05;;;;;;;;;;5024540;28;20080;-71
2024/02/16 13:05:49;;;;;;;9.18;1.35;;;;;;;;;;5024758;28;20053;-69
2024/02/16 13:08:15;;;;;;;5.13;1.10;;;;;;;;;;5025453;28;20044;-71
2024/02/16 13:10:40;;;;;;;2.67;0.70;;;;;;;;;;5025671;28;20049;-69
2024/02/16 13:13:06;;;;;;;4.70;1.00;;;;;;;;;;5024925;28;20041;-69
2024/02/16 13:15:32;;;;;;;7.28;1.13;;;;;;;;;;5022661;28;20048;-69
2024/02/16 13:17:57;;;;;;;8.38;1.00;;;;;;;;;;5026193;28;20127;-69
2024/02/16 13:20:24;;;;;;;6.43;0.95;;;;;;;;;;5025058;28;20069;-70
2024/02/16 13:22:49;;;;;;;6.13;1.10;;;;;;;;;;5020427;28;20400;-69
2024/02/16 13:25:15;;;;;;;5.38;1.08;;;;;;;;;;5025687;28;20045;-68
2024/02/16 13:27:40;;;;;;;4.35;1.10;;;;;;;;;;5007974;28;20041;-68
2024/02/16 13:30:07;;;;;;;7.18;1.35;;;;;;;;;;5025741;28;20043;-68
2024/02/16 13:32:33;;;;;;;4.38;1.10;;;;;;;;;;5027638;28;20045;-70
2024/02/16 13:34:59;;;;;;;1.83;0.68;;;;;;;;;;5024491;28;20095;-72
2024/02/16 13:37:24;;;;;;;4.47;1.13;;;;;;;;;;5028831;28;20037;-70
2024/02/16 13:39:50;;;;;;;4.55;1.45;;;;;;;;;;5023261;28;20041;-71
2024/02/16 13:42:16;;;;;;;5.85;0.98;;;;;;;;;;5026429;28;20051;-69
2024/02/16 13:44:41;;;;;;;7.65;1.25;;;;;;;;;;5009122;28;20108;-69
2024/02/16 13:47:07;;;;;;;4.30;1.05;;;;;;;;;;5024371;28;20033;-69
2024/02/16 13:49:32;;;;;;;10.32;1.10;;;;;;;;;;5026797;28;20090;-70
2024/02/16 13:51:58;;;;;;;7.03;1.02;;;;;;;;;;5023751;28;20037;-68
2024/02/16 13:54:25;;;;;;;5.95;1.00;;;;;;;;;;5014085;28;20608;-70
2024/02/16 13:56:50;;;;;;;9.23;1.50;;;;;;;;;;5023981;28;20033;-69
2024/02/16 13:59:15;;;;;;;5.88;1.00;;;;;;;;;;5022007;28;20033;-68
2024/02/16 14:01:41;;;;;;;6.55;1.15;;;;;;;;;;5011419;28;20060;-71
2024/02/16 14:04:06;;;;;;;5.78;1.10;;;;;;;;;;5029615;28;20517;-70
2024/02/16 14:06:31;;;;;;;8.05;1.67;;;;;;;;;;5032701;28;20058;-69
2024/02/16 14:08:57;;;;;;;11.18;1.50;;;;;;;;;;5028812;28;20067;-70
2024/02/16 14:11:23;;;;;;;5.75;1.00;;;;;;;;;;5029220;28;20123;-69
2024/02/16 14:13:49;;;;;;;6.82;1.00;;;;;;;;;;5028570;28;20037;-70
2024/02/16 14:16:15;;;;;;;8.02;1.35;;;;;;;;;;5029299;28;20033;-71
2024/02/16 14:18:40;;;;;;;3.47;1.00;;;;;;;;;;5028561;28;20106;-69
2024/02/16 14:21:06;;;;;;;3.97;1.40;;;;;;;;;;5028797;28;20070;-68
2024/02/16 14:23:31;;;;;;;7.38;1.52;;;;;;;;;;5027680;28;20423;-68
2024/02/16 14:25:57;;;;;;;5.03;1.20;;;;;;;;;;5026985;28;20049;-69
2024/02/16 14:28:23;;;;;;;6.38;1.23;;;;;;;;;;5029481;28;20029;-71
2024/02/16 14:30:48;;;;;;;6.55;1.30;;;;;;;;;;5028613;28;20488;-69